Metairie, LA (70060)

4:29 AM CDT on September 02, 2014 (GMT -0500)
Barkley Estates | Change Station
CLOSE
Current Station
Personal Weather Station
Location: Harvey, LA
Elevation: 7 ft
Nearby Weather Stations

Elev 7 ft 29.88 °N, 90.08 °W | Updated 13 minutes ago

Partly Cloudy
Partly Cloudy
77.9 °F
Feels Like 80 °F
N
0.0
Wind Variable Wind from SE

Today
High -- | Low -- °F
--% Chance of Precip.
Yesterday
High -- | Low -- °F
Precip. -- in
6:37 AM 7:21 PM
Waxing Crescent, 49% visible
Pressure 30.01 in
Visibility -9999.0 miles
Clouds Few 2300 ft
Heat Index 80 °F
Dew Point 76 °F
Humidity 95%
Rainfall 0.00 in
Snow Depth Not available.
UV 0 out of 12
Pollen 8.50 out of 12
Ozone Good
PM2.5 Good
Flu Activity Not available.
METAR KNBG 020855Z AUTO 00000KT FEW023 26/23 A3001 RMK AO2 SLP160 T02560233 55002 $

More Conditions Fewer Conditions

Pressure 30.01 in
Visibility -9999.0 miles
Clouds Few 2300 ft
Heat Index 80 °F
Dew Point 76 °F
Humidity 95%
Rainfall 0.00 in
Snow Depth Not available.
UV 0 out of 12
Pollen 8.50 out of 12
Ozone Good
PM2.5 Good
Flu Activity Not available.
METAR KNBG 020855Z AUTO 00000KT FEW023 26/23 A3001 RMK AO2 SLP160 T02560233 55002 $

More Conditions Fewer Conditions

10-Day Weather Forecast

Almanac

Astronomy

Sep. 02, 2014 Rise Set
Actual Time 6:37 AM CDT 7:21 PM CDT
Civil Twilight 6:13 AM CDT 7:45 PM CDT
Nautical Twilight 5:45 AM CDT 8:14 PM CDT
Astronomical Twilight 5:15 AM CDT 8:43 PM CDT
Moon 1:51 PM CDT No Moon Set
Length of Visible Light 13h 32m
Length of Day
12h 43m
Tomorrow will be 1m 43s shorter.
Waxing Crescent, 49% of the Moon is Illuminated
Today
Waxing Crescent
Sep 2
First Quarter
Sep 8
Full
Sep 15
Last Quarter
Sep 24
New

Today's Extremes

State Highs State Lows

Community

WunderPhotos

Upload Photos

1,749,587 photos uploaded!

WunderBlogs® & News

Nearby

Air Quality

  Air Quality AQ Index Pollutant
Yesterday Good
PM2.5
Yesterday Good
OZONE
Current Good
PM2.5
Current Good
OZONE
Tuesday Good
PM2.5
Tuesday Good
OZONE
Wednesday Good
PM2.5
Wednesday Good
OZONE

Snow Depth

Station Depth Elevation
No new snow has been reported.

Earthquake Activity

City Distance Mag. Time & Date
No recent earthquake activity has been reported nearby.
Minimum magnitude displayed is 2.5.

Coastal Water Temperatures

Place Temperature
New Canal, LA 81.0 °F
Shell Beach, LA 81.0 °F
Bayou Gauche, LA 84.0 °F

Nearby Weather Stations